Time;durP1;ratioP1;P1;durP2;ratioP2;P2;SDS_P1;SDS_P2;PMS_P1;PMS_P2;Temp;Humidity;BMP_temperature;BMP_pressure;BME280_temperature;BME280_humidity;BME280_pressure;Samples;Min_cycle;Max_cycle;Signal;HPM_P1;HPM_P2
2022/01/20 00:03:47;;;;;;;742.07;676.57;;;3.80;99.90;;;;;;5006575;28;20460;-82
2022/01/20 00:28:10;;;;;;;780.17;710.97;;;3.70;99.90;;;;;;5028854;28;20612;-84
2022/01/20 00:30:52;;;;;;;746.47;679.27;;;3.70;99.90;;;;;;5057228;28;20530;-83
2022/01/20 00:33:34;;;;;;;768.20;699.67;;;3.60;99.90;;;;;;5037702;28;20448;-82
2022/01/20 00:38:56;;;;;;;761.27;693.80;;;3.60;99.90;;;;;;5039048;28;20479;-82
2022/01/20 00:41:32;;;;;;;765.57;694.67;;;3.70;99.90;;;;;;5043497;28;20456;-82
2022/01/20 00:44:05;;;;;;;738.53;674.17;;;3.70;99.90;;;;;;5040287;28;21975;-82
2022/01/20 00:46:38;;;;;;;750.00;683.37;;;3.70;99.90;;;;;;5057358;28;20457;-82
2022/01/20 00:49:11;;;;;;;749.43;683.53;;;3.50;99.90;;;;;;5053216;28;20478;-82
2022/01/20 00:51:51;;;;;;;751.30;685.47;;;3.60;99.90;;;;;;5036190;28;20448;-82
2022/01/20 01:00:53;;;;;;;740.83;675.67;;;3.60;99.90;;;;;;5041973;28;20559;-83
2022/01/20 01:03:47;;;;;;;730.03;664.07;;;3.50;99.90;;;;;;5035743;28;20941;-83
2022/01/20 01:06:57;;;;;;;729.93;663.63;;;3.60;99.90;;;;;;4973333;28;20471;-83
2022/01/20 01:09:35;;;;;;;712.57;650.53;;;3.60;99.90;;;;;;5034266;28;20467;-83
2022/01/20 01:12:27;;;;;;;;;;;;;;;;;;;;;
2022/01/20 01:14:57;;;;;;;713.07;649.87;;;3.50;99.90;;;;;;5039760;28;20510;-85
2022/01/20 01:20:55;;;;;;;;;;;;;;;;;;;;;
2022/01/20 01:23:38;;;;;;;;;;;;;;;;;;;;;
2022/01/20 01:26:16;;;;;;;731.03;667.67;;;3.60;99.90;;;;;;5039622;28;20528;-83
2022/01/20 01:29:18;;;;;;;723.20;659.73;;;3.60;99.90;;;;;;5036521;28;20941;-82
2022/01/20 01:34:50;;;;;;;711.93;648.67;;;3.80;99.90;;;;;;5044581;28;20956;-83
2022/01/20 01:38:22;;;;;;;711.70;648.20;;;3.80;99.90;;;;;;5035984;28;20514;-83
2022/01/20 01:40:19;;;;;;;714.07;651.17;;;3.80;99.90;;;;;;5043927;28;20463;-83
2022/01/20 01:45:44;;;;;;;722.03;661.57;;;4.00;99.90;;;;;;5037726;28;20487;-83
2022/01/20 01:48:16;;;;;;;726.00;664.70;;;4.10;99.90;;;;;;5036199;28;20533;-82
2022/01/20 01:54:30;;;;;;;738.20;676.00;;;4.20;99.90;;;;;;4918829;29;20445;-83
2022/01/20 01:57:09;;;;;;;750.57;688.30;;;4.20;99.90;;;;;;4931291;29;20450;-82
2022/01/20 02:05:58;;;;;;;749.33;688.83;;;4.30;99.90;;;;;;5038154;28;20459;-82
2022/01/20 02:09:02;;;;;;;751.80;694.00;;;4.40;99.90;;;;;;4973661;28;20618;-83
2022/01/20 02:20:29;;;;;;;753.67;698.80;;;4.30;99.90;;;;;;5038978;28;20551;-83
2022/01/20 02:23:09;;;;;;;761.70;705.80;;;4.30;99.90;;;;;;5054592;28;20482;-83
2022/01/20 02:25:52;;;;;;;;;;;;;;;;;;;;;
2022/01/20 02:28:45;;;;;;;761.30;705.97;;;4.20;99.90;;;;;;5029271;28;20479;-82
2022/01/20 02:31:29;;;;;;;;;;;;;;;;;;;;;
2022/01/20 02:34:28;;;;;;;766.90;712.20;;;4.20;99.90;;;;;;5043718;28;20462;-81
2022/01/20 02:37:22;;;;;;;774.07;720.67;;;4.20;99.90;;;;;;5036031;28;20456;-81
2022/01/20 02:40:29;;;;;;;766.10;715.17;;;4.20;99.90;;;;;;5034369;28;20502;-81
2022/01/20 02:46:19;;;;;;;766.27;715.97;;;3.90;99.90;;;;;;5045059;28;20878;-81
2022/01/20 02:49:40;;;;;;;760.83;710.70;;;4.00;99.90;;;;;;5054921;28;20475;-81
2022/01/20 02:52:34;;;;;;;763.63;711.33;;;3.90;99.90;;;;;;5049339;28;20505;-81
2022/01/20 02:55:26;;;;;;;752.67;702.40;;;3.80;99.90;;;;;;5054488;28;20455;-81
2022/01/20 02:58:11;;;;;;;;;;;;;;;;;;;;;
2022/01/20 03:01:27;;;;;;;769.73;717.00;;;3.80;99.90;;;;;;5033792;28;20532;-81
2022/01/20 03:04:25;;;;;;;760.27;707.97;;;3.60;99.90;;;;;;5054151;28;20451;-81
2022/01/20 03:06:55;;;;;;;761.47;709.00;;;3.70;99.90;;;;;;5039478;28;20454;-81
2022/01/20 03:09:22;;;;;;;763.80;710.70;;;3.70;99.90;;;;;;5035268;28;20564;-81
2022/01/20 03:11:50;;;;;;;758.97;706.80;;;3.70;99.90;;;;;;5052455;28;20812;-81
2022/01/20 03:14:28;;;;;;;766.50;713.77;;;3.70;99.90;;;;;;5054742;28;20451;-81
2022/01/20 03:16:55;;;;;;;763.90;711.40;;;3.70;99.90;;;;;;5036082;28;20444;-81
2022/01/20 03:19:23;;;;;;;749.07;698.57;;;3.80;99.90;;;;;;5036821;28;20510;-82
2022/01/20 03:21:50;;;;;;;760.47;708.67;;;3.90;99.90;;;;;;5056238;28;20451;-81
2022/01/20 03:24:16;;;;;;;759.37;707.33;;;3.80;99.90;;;;;;5058666;28;20460;-81
2022/01/20 03:26:46;;;;;;;759.47;708.77;;;3.90;99.90;;;;;;5042212;28;20459;-81
2022/01/20 03:29:17;;;;;;;749.17;698.97;;;3.90;99.90;;;;;;5038550;28;20482;-81
2022/01/20 03:31:46;;;;;;;752.90;703.20;;;3.80;99.90;;;;;;5054725;28;20451;-81
2022/01/20 03:34:13;;;;;;;740.80;691.30;;;3.90;99.90;;;;;;5058553;28;20843;-81
2022/01/20 03:36:52;;;;;;;748.73;698.70;;;3.90;99.90;;;;;;5043132;28;20448;-81
2022/01/20 03:39:21;;;;;;;739.37;691.10;;;3.80;99.90;;;;;;5038082;28;20475;-81
2022/01/20 03:42:27;;;;;;;;;;;;;;;;;;;;;
2022/01/20 03:45:00;;;;;;;746.17;697.37;;;4.00;99.90;;;;;;5041471;28;20464;-81
2022/01/20 03:47:51;;;;;;;742.53;692.93;;;3.90;99.90;;;;;;5054529;28;20981;-81
2022/01/20 03:53:36;;;;;;;;;;;;;;;;;;;;;
2022/01/20 03:59:43;;;;;;;730.00;681.90;;;3.80;99.90;;;;;;4912793;28;20478;-81
2022/01/20 04:08:53;;;;;;;747.30;698.10;;;3.80;99.90;;;;;;5049005;28;20478;-81
2022/01/20 04:11:25;;;;;;;734.37;685.40;;;3.70;99.90;;;;;;5043091;28;20460;-80
2022/01/20 04:14:30;;;;;;;733.60;684.60;;;3.60;99.90;;;;;;5041969;28;20451;-82
2022/01/20 04:17:04;;;;;;;725.73;679.93;;;3.70;99.90;;;;;;5055368;28;20490;-82
2022/01/20 04:23:34;;;;;;;723.33;676.30;;;3.70;99.90;;;;;;5038237;28;20494;-82
2022/01/20 04:26:24;;;;;;;732.67;683.37;;;3.80;99.90;;;;;;5044015;28;20976;-82
2022/01/20 04:32:21;;;;;;;;;;;;;;;;;;;;;
2022/01/20 04:35:08;;;;;;;734.40;684.97;;;3.90;99.90;;;;;;5050597;28;20443;-82
2022/01/20 04:41:19;;;;;;;741.53;690.13;;;3.70;99.90;;;;;;5028635;28;20468;-82
2022/01/20 04:44:35;;;;;;;736.20;686.50;;;3.70;99.90;;;;;;5029113;28;20456;-82
2022/01/20 04:47:42;;;;;;;731.87;683.50;;;3.70;99.90;;;;;;4999139;28;20466;-82
2022/01/20 04:59:03;;;;;;;725.33;677.97;;;3.90;99.90;;;;;;5045870;28;20463;-81
2022/01/20 05:01:30;;;;;;;729.80;683.30;;;3.80;99.90;;;;;;5034105;28;20480;-82
2022/01/20 05:04:08;;;;;;;;;;;;;;;;;;;;;
2022/01/20 05:06:56;;;;;;;731.53;686.40;;;3.80;99.90;;;;;;5049853;28;20872;-81
2022/01/20 05:09:47;;;;;;;730.87;684.20;;;3.90;99.90;;;;;;5036280;28;20487;-82
2022/01/20 05:12:27;;;;;;;724.10;678.57;;;4.00;99.90;;;;;;5053540;28;20546;-82
2022/01/20 05:14:55;;;;;;;719.97;675.43;;;3.90;99.90;;;;;;5054407;28;20495;-81
2022/01/20 05:17:22;;;;;;;722.33;676.67;;;3.90;99.90;;;;;;5051404;28;20492;-81
2022/01/20 05:19:50;;;;;;;718.20;674.90;;;4.10;99.90;;;;;;5057485;28;20467;-81
2022/01/20 05:22:17;;;;;;;709.13;665.63;;;3.90;99.90;;;;;;5052728;28;20543;-81
2022/01/20 05:24:44;;;;;;;697.90;655.30;;;4.00;99.90;;;;;;5036602;28;20452;-81
2022/01/20 05:27:10;;;;;;;693.93;652.63;;;3.90;99.90;;;;;;5040932;28;20452;-82
2022/01/20 05:29:37;;;;;;;703.97;662.47;;;3.90;99.90;;;;;;5054934;28;20472;-81
2022/01/20 05:32:04;;;;;;;695.93;656.00;;;3.80;99.90;;;;;;5039179;28;20836;-81
2022/01/20 05:34:31;;;;;;;648.67;613.63;;;3.90;99.90;;;;;;5055339;28;20812;-82
2022/01/20 05:36:59;;;;;;;659.90;623.23;;;4.00;99.90;;;;;;5053330;28;20465;-80
2022/01/20 05:39:26;;;;;;;657.60;620.87;;;3.90;99.90;;;;;;5038186;28;22259;-81
2022/01/20 05:41:52;;;;;;;659.20;623.10;;;3.80;99.90;;;;;;5042046;28;20479;-80
2022/01/20 05:44:19;;;;;;;659.40;623.23;;;3.80;99.90;;;;;;5043687;28;20452;-81
2022/01/20 05:46:49;;;;;;;676.03;638.20;;;3.80;99.90;;;;;;5042152;28;20471;-81
2022/01/20 05:49:20;;;;;;;682.60;643.27;;;3.80;99.90;;;;;;5037026;28;20468;-80
2022/01/20 05:51:49;;;;;;;676.93;638.27;;;3.80;99.90;;;;;;5049794;28;20452;-80
2022/01/20 05:54:17;;;;;;;669.70;630.20;;;3.80;99.90;;;;;;5055516;28;20947;-81
2022/01/20 05:56:44;;;;;;;637.63;602.20;;;3.90;99.90;;;;;;5046069;28;20475;-81
2022/01/20 05:59:10;;;;;;;625.03;590.93;;;4.00;99.90;;;;;;5051799;28;20467;-81
2022/01/20 06:01:38;;;;;;;601.00;569.33;;;4.10;99.90;;;;;;5053632;28;20999;-81
2022/01/20 06:04:08;;;;;;;648.97;611.57;;;4.10;99.90;;;;;;5036546;28;20456;-81
2022/01/20 06:06:35;;;;;;;664.57;626.27;;;3.90;99.90;;;;;;5035040;28;20452;-81
2022/01/20 06:09:04;;;;;;;664.13;624.63;;;4.10;99.90;;;;;;5036171;28;20476;-81
2022/01/20 06:11:32;;;;;;;669.20;630.23;;;3.90;99.90;;;;;;5043005;28;20443;-81
2022/01/20 06:13:59;;;;;;;699.80;654.80;;;4.00;99.90;;;;;;5054592;28;20964;-81
2022/01/20 06:16:25;;;;;;;695.07;651.80;;;3.90;99.90;;;;;;5044952;28;20826;-81
2022/01/20 06:18:52;;;;;;;694.03;650.27;;;4.00;99.90;;;;;;5045398;28;20555;-82
2022/01/20 06:21:19;;;;;;;710.20;661.77;;;3.90;99.90;;;;;;5039986;28;20468;-81
2022/01/20 06:23:46;;;;;;;713.27;664.17;;;3.90;99.90;;;;;;5035123;28;20464;-82
2022/01/20 06:26:13;;;;;;;716.70;669.33;;;3.90;99.90;;;;;;5034371;28;20463;-81
2022/01/20 06:28:41;;;;;;;696.20;653.50;;;3.90;99.90;;;;;;5033611;28;20480;-81
2022/01/20 06:31:08;;;;;;;716.03;668.47;;;3.90;99.90;;;;;;5033458;28;20448;-81
2022/01/20 06:33:35;;;;;;;717.60;668.43;;;3.90;99.90;;;;;;5033555;28;20535;-81
2022/01/20 06:36:02;;;;;;;707.83;661.40;;;3.80;99.90;;;;;;5033866;28;20456;-81
2022/01/20 06:38:29;;;;;;;709.53;663.03;;;3.70;99.90;;;;;;5033419;28;20837;-81
2022/01/20 06:40:56;;;;;;;710.70;663.40;;;3.70;99.90;;;;;;5032888;28;20476;-81
2022/01/20 06:43:23;;;;;;;719.60;670.50;;;3.60;99.90;;;;;;5032803;28;20452;-81
2022/01/20 06:45:51;;;;;;;724.30;674.07;;;3.50;99.90;;;;;;5033092;28;20828;-81
2022/01/20 06:48:18;;;;;;;721.87;670.07;;;3.50;99.90;;;;;;5032345;28;20988;-81
2022/01/20 06:50:45;;;;;;;725.90;672.50;;;3.40;99.90;;;;;;5033662;28;20452;-81
2022/01/20 06:53:11;;;;;;;722.90;671.00;;;3.40;99.90;;;;;;5035713;28;20517;-81
2022/01/20 06:55:38;;;;;;;727.37;672.73;;;3.40;99.90;;;;;;5038794;28;20818;-81
2022/01/20 06:58:05;;;;;;;733.37;679.07;;;3.50;99.90;;;;;;5038677;28;20483;-81
2022/01/20 07:00:33;;;;;;;736.33;681.33;;;3.40;99.90;;;;;;5038182;28;20483;-81
2022/01/20 07:03:01;;;;;;;724.63;671.97;;;3.40;99.90;;;;;;5038341;28;20536;-81
2022/01/20 07:05:28;;;;;;;723.80;673.40;;;3.50;99.90;;;;;;5040278;28;20448;-81
2022/01/20 07:07:55;;;;;;;720.17;670.27;;;3.40;99.90;;;;;;5039803;28;20484;-81
2022/01/20 07:10:27;;;;;;;712.83;664.50;;;3.50;99.90;;;;;;5038114;28;20452;-81
2022/01/20 07:13:02;;;;;;;703.37;656.17;;;3.50;99.90;;;;;;5040144;28;20502;-81
2022/01/20 07:15:30;;;;;;;691.13;648.13;;;3.50;99.90;;;;;;5039583;28;20444;-81
2022/01/20 07:17:57;;;;;;;661.80;623.13;;;3.70;99.90;;;;;;5039331;28;20963;-81
2022/01/20 07:27:49;;;;;;;490.60;468.87;;;3.80;99.90;;;;;;4916979;28;21068;-83
2022/01/20 07:30:37;;;;;;;687.70;647.10;;;3.70;99.90;;;;;;4943600;28;20470;-83
2022/01/20 07:33:47;;;;;;;;;;;;;;;;;;;;;
2022/01/20 07:37:10;;;;;;;;;;;;;;;;;;;;;
2022/01/20 07:46:11;;;;;;;671.47;621.33;;;3.10;99.90;;;;;;5045311;28;20464;-83
2022/01/20 07:55:28;;;;;;;;;;;;;;;;;;;;;
2022/01/20 07:58:27;;;;;;;664.77;605.37;;;3.00;99.90;;;;;;4974641;28;20466;-83
2022/01/20 08:08:42;;;;;;;;;;;;;;;;;;;;;
2022/01/20 08:24:53;;;;;;;;;;;;;;;;;;;;;
2022/01/20 08:31:25;;;;;;;;;;;;;;;;;;;;;
2022/01/20 08:41:29;;;;;;;696.03;635.70;;;3.10;99.90;;;;;;5007993;28;20461;-85
2022/01/20 08:54:53;;;;;;;730.33;673.03;;;3.30;99.90;;;;;;5036637;28;20522;-85
2022/01/20 09:27:39;;;;;;;8.10;4.00;;;3.20;99.90;;;;;;4958866;28;20818;-85
2022/01/20 10:24:11;;;;;;;;;;;;;;;;;;;;;
2022/01/20 10:33:19;;;;;;;14.50;5.90;;;3.50;99.90;;;;;;5056875;28;20466;-83
2022/01/20 10:36:39;;;;;;;;;;;;;;;;;;;;;
2022/01/20 11:02:35;;;;;;;17.30;10.63;;;4.10;99.90;;;;;;5000284;28;20597;-84
2022/01/20 11:15:31;;;;;;;;;;;;;;;;;;;;;
2022/01/20 11:18:53;;;;;;;;;;;;;;;;;;;;;
2022/01/20 11:55:36;;;;;;;121.10;115.63;;;3.70;99.90;;;;;;5007529;28;20539;-85
2022/01/20 12:12:21;;;;;;;22.13;5.00;;;5.10;99.90;;;;;;4963003;28;20537;-86
2022/01/20 12:14:55;;;;;;;10.57;4.80;;;5.40;99.90;;;;;;4896791;28;20462;-85
2022/01/20 12:21:23;;;;;;;13.97;4.73;;;6.00;96.50;;;;;;5039408;23;20512;-86
2022/01/20 12:51:55;;;;;;;9.90;2.00;;;5.40;92.40;;;;;;4828613;29;20465;-84
2022/01/20 13:01:42;;;;;;;19.63;4.60;;;5.20;91.50;;;;;;4805147;29;20474;-90
2022/01/20 13:08:40;;;;;;;9.03;2.97;;;6.20;87.50;;;;;;4824891;29;20479;-84
2022/01/20 13:21:46;;;;;;;11.10;2.70;;;5.80;80.20;;;;;;4916110;28;20550;-85
2022/01/20 13:31:25;;;;;;;19.00;3.20;;;5.60;77.40;;;;;;4907563;29;20544;-83
2022/01/20 13:37:53;;;;;;;;;;;;;;;;;;;;;
2022/01/20 13:41:08;;;;;;;;;;;;;;;;;;;;;
2022/01/20 13:51:10;;;;;;;12.20;4.87;;;4.60;81.00;;;;;;4906160;29;20490;-84
2022/01/20 13:57:36;;;;;;;27.43;4.00;;;4.60;86.50;;;;;;4964502;28;20462;-83
2022/01/20 14:14:18;;;;;;;;;;;;;;;;;;;;;
2022/01/20 14:24:52;;;;;;;14.23;5.70;;;3.70;99.90;;;;;;4821886;29;20498;-82
2022/01/20 14:57:40;;;;;;;10.80;2.57;;;4.30;88.50;;;;;;4866587;29;20451;-85
2022/01/20 15:14:22;;;;;;;;;;;;;;;;;;;;;
2022/01/20 15:27:58;;;;;;;;;;;;;;;;;;;;;
2022/01/20 15:44:24;;;;;;;37.83;35.33;;;3.20;99.00;;;;;;4872694;29;20474;-85
2022/01/20 15:57:55;;;;;;;;;;;;;;;;;;;;;
2022/01/20 16:31:19;;;;;;;656.30;598.73;;;2.20;99.90;;;;;;4825766;29;20470;-85
2022/01/20 17:02:31;;;;;;;665.53;601.87;;;1.90;99.90;;;;;;4793737;29;20635;-88
2022/01/20 17:22:32;;;;;;;626.33;577.27;;;1.90;99.90;;;;;;4899116;29;20569;-84
2022/01/20 18:12:21;;;;;;;655.73;590.00;;;1.10;99.90;;;;;;4791706;29;20474;-84
2022/01/20 18:25:12;;;;;;;655.50;591.83;;;1.10;99.90;;;;;;4899713;29;20572;-84
2022/01/20 18:27:40;;;;;;;657.70;594.87;;;1.10;99.90;;;;;;4929779;29;20512;-87
2022/01/20 18:30:09;;;;;;;653.33;593.60;;;1.20;99.90;;;;;;4966166;28;20835;-83
2022/01/20 18:32:35;;;;;;;651.70;594.70;;;1.20;99.90;;;;;;4966048;28;20832;-83
2022/01/20 18:35:03;;;;;;;646.53;587.57;;;1.30;99.90;;;;;;4965954;29;20455;-84
2022/01/20 18:37:30;;;;;;;652.70;590.47;;;1.10;99.90;;;;;;4963858;29;20452;-83
2022/01/20 18:39:56;;;;;;;644.63;584.70;;;1.10;99.90;;;;;;4964988;28;20478;-84
2022/01/20 18:42:23;;;;;;;651.53;589.53;;;1.00;99.90;;;;;;4963334;28;20455;-83
2022/01/20 18:44:52;;;;;;;650.97;589.67;;;1.10;99.90;;;;;;4963318;28;20476;-83
2022/01/20 18:47:18;;;;;;;643.27;584.17;;;1.00;99.90;;;;;;4984667;28;20454;-83
2022/01/20 18:49:45;;;;;;;667.50;605.97;;;1.00;99.90;;;;;;4986893;28;20474;-83
2022/01/20 18:52:12;;;;;;;688.07;625.47;;;1.10;99.90;;;;;;4987088;28;20458;-83
2022/01/20 18:54:39;;;;;;;683.17;620.93;;;1.10;99.90;;;;;;4986099;28;20975;-83
2022/01/20 18:57:06;;;;;;;665.53;604.10;;;1.00;99.90;;;;;;4988190;28;20485;-83
2022/01/20 18:59:33;;;;;;;683.90;622.43;;;1.10;99.90;;;;;;4988490;28;21079;-83
2022/01/20 19:02:01;;;;;;;690.20;629.80;;;1.10;99.90;;;;;;4986426;28;20459;-83
2022/01/20 19:04:28;;;;;;;662.93;602.57;;;1.00;99.90;;;;;;4988064;28;20481;-88
2022/01/20 19:07:00;;;;;;;645.83;586.70;;;1.00;99.90;;;;;;4989360;28;20454;-83
2022/01/20 19:09:29;;;;;;;641.57;582.73;;;0.90;99.90;;;;;;4988065;28;20938;-86
2022/01/20 19:11:57;;;;;;;654.43;595.37;;;1.00;99.90;;;;;;4984161;28;20455;-84
2022/01/20 19:14:24;;;;;;;653.97;592.20;;;1.00;99.90;;;;;;4992153;28;20447;-83
2022/01/20 19:16:54;;;;;;;650.50;593.50;;;0.90;99.90;;;;;;4992261;28;20463;-86
2022/01/20 19:19:22;;;;;;;638.17;580.67;;;0.80;99.90;;;;;;4987100;28;20471;-82
2022/01/20 19:21:49;;;;;;;635.47;578.07;;;0.90;99.90;;;;;;4991583;28;20466;-84
2022/01/20 19:24:15;;;;;;;631.30;576.23;;;0.80;99.90;;;;;;4990946;28;20513;-83
2022/01/20 19:26:42;;;;;;;631.30;576.00;;;0.80;99.90;;;;;;4985150;28;20463;-83
2022/01/20 19:29:09;;;;;;;646.77;590.03;;;0.80;99.90;;;;;;4985167;28;20509;-84
2022/01/20 19:31:36;;;;;;;633.63;578.73;;;1.00;99.90;;;;;;4985906;28;20459;-83
2022/01/20 19:34:03;;;;;;;630.07;575.83;;;0.90;99.90;;;;;;4986021;28;20538;-83
2022/01/20 19:36:31;;;;;;;634.93;581.90;;;1.00;99.90;;;;;;4985056;28;20469;-83
2022/01/20 19:38:58;;;;;;;621.17;569.60;;;1.00;99.90;;;;;;4984867;28;20494;-83
2022/01/20 19:41:27;;;;;;;634.20;583.57;;;1.10;99.90;;;;;;4985781;28;20805;-83
2022/01/20 19:43:54;;;;;;;624.83;573.93;;;1.00;99.90;;;;;;4985564;28;20455;-83
2022/01/20 19:46:21;;;;;;;624.57;574.77;;;1.00;99.90;;;;;;4984860;28;20871;-83
2022/01/20 19:48:50;;;;;;;609.93;561.30;;;1.00;99.90;;;;;;4983058;28;20475;-85
2022/01/20 19:51:18;;;;;;;608.07;560.53;;;1.00;99.90;;;;;;4983598;28;20455;-84
2022/01/20 19:53:46;;;;;;;608.17;560.70;;;0.90;99.90;;;;;;4985403;28;20459;-84
2022/01/20 19:56:14;;;;;;;616.77;568.67;;;0.90;99.90;;;;;;4985776;28;20554;-83
2022/01/20 19:58:41;;;;;;;608.47;565.40;;;0.80;99.90;;;;;;4985122;28;20907;-84
2022/01/20 20:01:07;;;;;;;603.47;558.37;;;0.80;99.90;;;;;;4984228;28;20482;-84
2022/01/20 20:03:42;;;;;;;608.40;563.90;;;0.90;99.90;;;;;;4986574;28;20455;-83
2022/01/20 20:06:09;;;;;;;629.77;583.30;;;0.80;99.90;;;;;;4986868;28;20529;-84
2022/01/20 20:08:36;;;;;;;619.70;575.20;;;0.80;99.90;;;;;;4985696;28;20479;-86
2022/01/20 20:11:04;;;;;;;635.90;588.20;;;0.70;99.90;;;;;;4987024;28;20462;-83
2022/01/20 20:13:31;;;;;;;629.83;583.93;;;0.60;99.90;;;;;;4984448;28;20455;-86
2022/01/20 20:15:58;;;;;;;643.70;592.90;;;0.70;99.90;;;;;;4985572;28;20461;-84
2022/01/20 20:18:25;;;;;;;652.87;599.67;;;0.70;99.90;;;;;;4986776;28;20479;-83
2022/01/20 20:20:53;;;;;;;669.37;613.23;;;0.70;99.90;;;;;;4989716;28;20456;-85
2022/01/20 20:23:19;;;;;;;693.93;637.10;;;0.50;99.90;;;;;;4987284;28;20558;-83
2022/01/20 20:25:46;;;;;;;689.83;631.30;;;0.50;99.90;;;;;;4988682;28;20485;-85
2022/01/20 20:28:14;;;;;;;709.70;646.10;;;0.50;99.90;;;;;;4990604;28;20479;-83
2022/01/20 20:30:41;;;;;;;699.73;636.57;;;0.40;99.90;;;;;;4991309;28;20457;-84
2022/01/20 20:33:08;;;;;;;700.50;636.57;;;0.50;99.90;;;;;;4989992;28;20465;-82
2022/01/20 20:35:36;;;;;;;703.23;639.80;;;0.50;99.90;;;;;;4991323;28;20451;-85
2022/01/20 20:38:03;;;;;;;708.90;644.70;;;0.40;99.90;;;;;;4987656;28;20837;-82
2022/01/20 20:40:30;;;;;;;705.03;642.20;;;0.50;99.90;;;;;;4990112;28;20482;-82
2022/01/20 20:42:57;;;;;;;700.77;637.37;;;0.40;99.90;;;;;;4989855;28;20458;-83
2022/01/20 20:45:25;;;;;;;709.77;645.40;;;0.50;99.90;;;;;;4992274;28;20489;-86
2022/01/20 20:47:52;;;;;;;724.50;657.80;;;0.40;99.90;;;;;;4990801;28;20479;-85
2022/01/20 20:50:19;;;;;;;717.67;652.00;;;0.40;99.90;;;;;;4991343;28;20541;-83
2022/01/20 20:52:46;;;;;;;717.20;649.00;;;0.40;99.90;;;;;;4988008;28;20459;-84
2022/01/20 20:55:15;;;;;;;720.53;650.50;;;0.40;99.90;;;;;;4986103;28;20447;-83
2022/01/20 20:57:45;;;;;;;717.20;646.33;;;0.50;99.90;;;;;;4987629;28;20462;-83
2022/01/20 21:00:14;;;;;;;725.97;654.20;;;0.40;99.90;;;;;;4990212;28;20461;-82
2022/01/20 21:02:43;;;;;;;736.77;667.20;;;0.50;99.90;;;;;;4988576;28;20466;-83
2022/01/20 21:05:10;;;;;;;736.97;665.67;;;0.50;99.90;;;;;;4988329;28;20490;-83
2022/01/20 21:07:37;;;;;;;744.93;672.73;;;0.40;99.90;;;;;;4987940;28;20462;-82
2022/01/20 21:10:05;;;;;;;741.07;670.50;;;0.50;99.90;;;;;;4985839;28;20474;-83
2022/01/20 21:12:32;;;;;;;724.80;652.73;;;0.60;99.90;;;;;;4988118;28;20974;-82
2022/01/20 21:15:00;;;;;;;730.40;658.50;;;0.50;99.90;;;;;;4987314;28;20461;-83
2022/01/20 21:17:27;;;;;;;732.80;661.20;;;0.60;99.90;;;;;;4987194;28;20474;-82
2022/01/20 21:19:56;;;;;;;737.45;664.45;;;0.40;99.90;;;;;;4987973;28;20538;-85
2022/01/20 21:22:24;;;;;;;741.63;669.00;;;0.50;99.90;;;;;;4986309;28;20204;-83
2022/01/20 21:24:51;;;;;;;749.87;674.70;;;0.50;99.90;;;;;;4986979;28;20862;-84
2022/01/20 21:27:17;;;;;;;739.40;664.57;;;0.60;99.90;;;;;;4987491;28;20454;-83
2022/01/20 21:29:44;;;;;;;731.83;658.53;;;0.50;99.90;;;;;;4987527;28;20857;-85
2022/01/20 21:32:12;;;;;;;727.97;656.00;;;0.50;99.90;;;;;;4986862;28;20459;-83
2022/01/20 21:34:42;;;;;;;736.90;662.80;;;0.40;99.90;;;;;;4987518;28;20455;-83
2022/01/20 21:37:11;;;;;;;750.27;676.27;;;0.60;99.90;;;;;;4988816;28;20462;-83
2022/01/20 21:39:38;;;;;;;746.57;673.43;;;0.50;99.90;;;;;;4987448;28;20477;-83
2022/01/20 21:42:07;;;;;;;742.83;671.40;;;0.50;99.90;;;;;;4984344;28;20486;-85
2022/01/20 21:44:34;;;;;;;745.23;671.23;;;0.50;99.90;;;;;;4981945;28;20459;-82
2022/01/20 21:47:20;;;;;;;739.90;666.10;;;0.60;99.90;;;;;;4987292;28;20461;-83
2022/01/20 21:50:00;;;;;;;733.13;661.77;;;0.50;99.90;;;;;;4985426;28;20481;-82
2022/01/20 21:52:37;;;;;;;743.45;671.10;;;0.50;99.90;;;;;;4984395;28;20489;-83
2022/01/20 21:55:24;;;;;;;745.20;673.63;;;0.60;99.90;;;;;;4986081;28;20195;-84
2022/01/20 21:58:05;;;;;;;749.63;675.57;;;0.50;99.90;;;;;;4985659;28;20203;-83
2022/01/20 22:01:16;;;;;;;;;;;;;;;;;;;;;
2022/01/20 22:04:07;;;;;;;741.20;669.25;;;0.60;99.90;;;;;;4979918;28;20455;-83
2022/01/20 22:07:19;;;;;;;743.97;670.63;;;0.60;99.90;;;;;;4984999;28;20220;-82
2022/01/20 22:10:49;;;;;;;;;;;;;;;;;;;;;
2022/01/20 22:29:48;;;;;;;;;;;;;;;;;;;;;
2022/01/20 22:32:44;;;;;;;;;;;;;;;;;;;;;
2022/01/20 22:35:34;;;;;;;750.03;677.00;;;0.60;99.90;;;;;;4973256;28;20451;-83
2022/01/20 22:44:58;;;;;;;751.27;678.37;;;0.60;99.90;;;;;;4973202;28;20466;-85
2022/01/20 22:54:51;;;;;;;;;;;;;;;;;;;;;
2022/01/20 23:01:28;;;;;;;;;;;;;;;;;;;;;
2022/01/20 23:10:57;;;;;;;766.30;696.00;;;0.90;99.90;;;;;;4983730;28;20451;-82
2022/01/20 23:27:06;;;;;;;;;;;;;;;;;;;;;
2022/01/20 23:33:03;;;;;;;766.07;692.47;;;0.70;99.90;;;;;;4889691;28;20462;-81
